Time;durP1;ratioP1;P1;durP2;ratioP2;P2;SDS_P1;SDS_P2;PMS_P1;PMS_P2;Temp;Humidity;BMP_temperature;BMP_pressure;BME280_temperature;BME280_humidity;BME280_pressure;Samples;Min_cycle;Max_cycle;Signal;HPM_P1;HPM_P2
2022/09/16 00:01:22;;;;;;;1.90;1.30;;;11.60;47.20;;;;;;5006809;28;20483;-51
2022/09/16 00:03:48;;;;;;;1.40;1.27;;;11.60;50.40;;;;;;5000803;28;20492;-51
2022/09/16 00:06:20;;;;;;;3.43;1.43;;;11.50;51.70;;;;;;5006874;28;20460;-50
2022/09/16 00:08:49;;;;;;;5.70;1.57;;;11.60;53.20;;;;;;5009279;28;20521;-49
2022/09/16 00:11:16;;;;;;;2.17;1.33;;;11.50;54.50;;;;;;5011264;28;20487;-49
2022/09/16 00:13:43;;;;;;;4.03;1.90;;;11.50;54.30;;;;;;5010731;28;20463;-49
2022/09/16 00:16:18;;;;;;;2.33;1.80;;;11.40;54.60;;;;;;5012458;28;20483;-50
2022/09/16 00:18:55;;;;;;;5.77;1.47;;;11.40;51.40;;;;;;5012328;28;20463;-50
2022/09/16 00:21:26;;;;;;;1.93;1.20;;;11.40;50.30;;;;;;5009048;28;20514;-50
2022/09/16 00:23:55;;;;;;;5.00;1.80;;;11.40;51.50;;;;;;5010919;28;20464;-50
2022/09/16 00:26:28;;;;;;;1.60;1.47;;;11.40;53.20;;;;;;5007946;28;20468;-51
2022/09/16 00:29:12;;;;;;;4.53;1.73;;;11.40;52.50;;;;;;5008806;28;20459;-52
2022/09/16 00:31:39;;;;;;;1.53;1.17;;;11.40;52.80;;;;;;5009854;28;20586;-48
2022/09/16 00:34:05;;;;;;;4.10;1.20;;;11.30;56.40;;;;;;5009005;28;20475;-49
2022/09/16 00:36:32;;;;;;;3.57;1.37;;;11.30;55.10;;;;;;5008489;28;20480;-49
2022/09/16 00:39:00;;;;;;;2.40;1.57;;;11.30;56.50;;;;;;5008202;28;20510;-50
2022/09/16 00:41:31;;;;;;;7.80;1.70;;;11.30;51.30;;;;;;5008679;28;20984;-50
2022/09/16 00:44:00;;;;;;;3.97;1.30;;;11.30;51.00;;;;;;5011168;28;20575;-50
2022/09/16 00:46:33;;;;;;;1.83;1.30;;;11.20;57.40;;;;;;5008233;28;20530;-50
2022/09/16 00:49:05;;;;;;;1.60;1.20;;;11.20;60.80;;;;;;5009287;28;20863;-51
2022/09/16 00:51:32;;;;;;;4.20;2.23;;;11.20;55.80;;;;;;5009508;28;20488;-51
2022/09/16 00:54:03;;;;;;;3.37;1.43;;;11.20;53.50;;;;;;5007367;28;20886;-49
2022/09/16 00:56:33;;;;;;;3.03;1.70;;;11.10;53.30;;;;;;5008243;28;20481;-50
2022/09/16 00:59:05;;;;;;;3.00;1.37;;;11.10;52.70;;;;;;5010913;28;20456;-51
2022/09/16 01:01:32;;;;;;;3.43;1.47;;;11.10;54.80;;;;;;5008397;28;20479;-49
2022/09/16 01:04:03;;;;;;;3.90;1.33;;;11.10;55.30;;;;;;5009845;28;20838;-49
2022/09/16 01:06:32;;;;;;;4.30;1.17;;;11.10;57.70;;;;;;5009545;28;20498;-53
2022/09/16 01:08:59;;;;;;;2.93;1.37;;;11.10;56.50;;;;;;5007927;28;20459;-49
2022/09/16 01:11:28;;;;;;;1.80;1.07;;;11.10;57.20;;;;;;5009283;28;20483;-49
2022/09/16 01:14:51;;;;;;;1.47;1.37;;;11.00;56.90;;;;;;5008229;28;20491;-50
2022/09/16 01:16:44;;;;;;;3.07;1.20;;;11.00;56.50;;;;;;5007132;28;20586;-50
2022/09/16 01:19:23;;;;;;;6.73;1.93;;;11.00;57.10;;;;;;5005398;28;20862;-50
2022/09/16 01:22:03;;;;;;;1.57;1.13;;;10.90;56.60;;;;;;5007511;28;20491;-49
2022/09/16 01:24:46;;;;;;;1.90;1.20;;;11.00;55.60;;;;;;5009157;28;20459;-50
2022/09/16 01:27:40;;;;;;;2.20;1.30;;;10.90;50.50;;;;;;5010027;28;20463;-50
2022/09/16 01:30:33;;;;;;;4.80;1.43;;;10.90;48.70;;;;;;5006048;28;20471;-49
2022/09/16 01:33:04;;;;;;;3.00;1.63;;;10.90;47.80;;;;;;5003781;28;20464;-50
2022/09/16 01:35:43;;;;;;;6.23;2.40;;;10.90;46.90;;;;;;5007442;28;20491;-50
2022/09/16 01:38:23;;;;;;;5.17;1.40;;;10.90;44.70;;;;;;5004131;28;20540;-50
2022/09/16 01:40:57;;;;;;;3.83;1.50;;;10.90;45.30;;;;;;5008973;28;21105;-49
2022/09/16 01:43:32;;;;;;;2.93;1.40;;;10.90;42.80;;;;;;5008479;28;20544;-50
2022/09/16 01:46:04;;;;;;;1.87;1.33;;;10.90;38.50;;;;;;5005202;28;20509;-50
2022/09/16 01:48:37;;;;;;;5.50;1.60;;;10.80;38.90;;;;;;5002797;28;20526;-50
2022/09/16 01:51:07;;;;;;;3.90;1.00;;;10.90;38.60;;;;;;5004787;28;20504;-50
2022/09/16 01:53:39;;;;;;;4.50;1.57;;;10.80;38.00;;;;;;5007990;28;20838;-51
2022/09/16 01:56:11;;;;;;;3.73;1.30;;;10.80;36.30;;;;;;5003544;28;20519;-49
2022/09/16 01:58:46;;;;;;;5.20;1.87;;;10.80;33.60;;;;;;5007109;28;20474;-50
2022/09/16 02:01:22;;;;;;;6.60;1.37;;;10.70;33.30;;;;;;5007768;28;20535;-50
2022/09/16 02:03:55;;;;;;;3.50;1.40;;;10.80;33.10;;;;;;5007617;28;20468;-50
2022/09/16 02:06:23;;;;;;;3.70;1.87;;;10.70;27.20;;;;;;5003655;28;20468;-50
2022/09/16 02:08:55;;;;;;;1.57;1.43;;;10.70;28.50;;;;;;5004293;28;20459;-50
2022/09/16 02:11:22;;;;;;;5.90;1.30;;;10.70;27.10;;;;;;5006321;28;20498;-51
2022/09/16 02:13:52;;;;;;;5.10;1.60;;;10.70;25.10;;;;;;5007280;28;20459;-51
2022/09/16 02:16:29;;;;;;;4.20;1.63;;;10.70;21.50;;;;;;5005005;28;20895;-50
2022/09/16 02:19:01;;;;;;;1.57;1.33;;;10.70;80.60;;;;;;5006577;28;20506;-50
2022/09/16 02:21:31;;;;;;;4.30;1.53;;;10.70;75.40;;;;;;5003614;28;20557;-51
2022/09/16 02:24:03;;;;;;;1.80;1.30;;;10.60;79.50;;;;;;5004866;28;20893;-50
2022/09/16 02:26:35;;;;;;;2.90;1.70;;;10.60;99.90;;;;;;5009975;28;21015;-50
2022/09/16 02:29:02;;;;;;;6.20;2.03;;;10.60;99.90;;;;;;5008398;28;20935;-50
2022/09/16 02:31:35;;;;;;;2.93;1.87;;;10.60;99.90;;;;;;5008068;28;20475;-51
2022/09/16 02:34:06;;;;;;;4.13;2.13;;;10.60;99.90;;;;;;5005247;28;20957;-50
2022/09/16 02:36:34;;;;;;;1.93;1.37;;;10.50;99.90;;;;;;5007834;28;20490;-50
2022/09/16 02:39:06;;;;;;;2.77;1.27;;;10.50;99.90;;;;;;5006650;28;20463;-50
2022/09/16 02:41:32;;;;;;;3.83;1.90;;;10.50;99.90;;;;;;5003156;28;20491;-50
2022/09/16 02:43:59;;;;;;;2.10;1.33;;;10.50;99.90;;;;;;5004435;28;20467;-50
2022/09/16 02:46:36;;;;;;;3.57;1.43;;;10.50;99.90;;;;;;5003350;28;20542;-50
2022/09/16 02:49:12;;;;;;;3.13;1.60;;;10.50;99.90;;;;;;5003348;28;20514;-50
2022/09/16 02:51:48;;;;;;;9.50;1.87;;;10.50;99.90;;;;;;5009476;28;20479;-52
2022/09/16 02:54:21;;;;;;;3.83;1.67;;;10.50;99.90;;;;;;5006500;28;20463;-52
2022/09/16 02:56:48;;;;;;;4.07;1.80;;;10.50;99.90;;;;;;5006675;28;21050;-52
2022/09/16 02:59:16;;;;;;;5.70;2.00;;;10.40;99.90;;;;;;5007218;28;20525;-52
2022/09/16 03:01:45;;;;;;;1.83;1.27;;;10.50;99.90;;;;;;5007902;28;20484;-50
2022/09/16 03:04:15;;;;;;;6.73;1.50;;;10.50;99.90;;;;;;5002904;28;20521;-52
2022/09/16 03:06:41;;;;;;;3.80;1.63;;;10.50;99.90;;;;;;5007208;28;20815;-52
2022/09/16 03:09:11;;;;;;;4.00;1.70;;;10.50;99.90;;;;;;5008857;28;20464;-52
2022/09/16 03:11:53;;;;;;;4.60;1.70;;;10.50;99.90;;;;;;5006216;28;20484;-52
2022/09/16 03:15:04;;;;;;;3.17;1.77;;;10.40;99.90;;;;;;5007070;28;20463;-52
2022/09/16 03:17:47;;;;;;;2.73;1.37;;;10.40;99.90;;;;;;5005047;28;20480;-51
2022/09/16 03:20:21;;;;;;;5.03;1.20;;;10.40;99.90;;;;;;5005215;28;20464;-51
2022/09/16 03:22:53;;;;;;;3.77;2.00;;;10.30;99.90;;;;;;5004078;28;20817;-51
2022/09/16 03:25:30;;;;;;;4.20;1.83;;;10.30;99.90;;;;;;5005174;28;20459;-50
2022/09/16 03:28:02;;;;;;;2.07;1.77;;;10.30;99.90;;;;;;5005715;28;20463;-51
2022/09/16 03:30:32;;;;;;;7.17;1.70;;;10.30;99.90;;;;;;5007181;28;20487;-51
2022/09/16 03:33:05;;;;;;;3.20;1.60;;;10.30;99.90;;;;;;5002743;28;20460;-50
2022/09/16 03:35:38;;;;;;;3.93;2.10;;;10.30;99.90;;;;;;5002079;28;20487;-50
2022/09/16 03:38:08;;;;;;;5.47;2.17;;;10.30;99.90;;;;;;5007941;28;20470;-50
2022/09/16 03:40:36;;;;;;;4.40;1.73;;;10.30;99.90;;;;;;5005847;28;20502;-51
2022/09/16 03:43:10;;;;;;;5.93;2.07;;;10.30;99.90;;;;;;5010020;28;20495;-50
2022/09/16 03:45:37;;;;;;;4.17;1.70;;;10.30;99.90;;;;;;5010507;28;20564;-51
2022/09/16 03:48:05;;;;;;;4.87;1.90;;;10.40;99.90;;;;;;5010255;28;20525;-50
2022/09/16 03:50:32;;;;;;;2.60;1.50;;;10.30;99.90;;;;;;5009803;28;21013;-50
2022/09/16 03:52:58;;;;;;;2.17;1.17;;;10.30;99.90;;;;;;5009049;28;20464;-50
2022/09/16 03:55:25;;;;;;;2.10;1.60;;;10.30;99.90;;;;;;5007679;28;20493;-51
2022/09/16 03:57:53;;;;;;;3.23;1.60;;;10.40;99.90;;;;;;5006392;28;20483;-51
2022/09/16 04:00:19;;;;;;;2.20;1.23;;;10.40;99.90;;;;;;5010826;28;20547;-50
2022/09/16 04:02:46;;;;;;;7.63;2.50;;;10.40;99.90;;;;;;5011178;28;20513;-51
2022/09/16 04:05:14;;;;;;;3.67;1.67;;;10.40;99.90;;;;;;5008873;28;20491;-51
2022/09/16 04:07:41;;;;;;;3.63;1.60;;;10.40;99.90;;;;;;5011621;28;20455;-50
2022/09/16 04:10:11;;;;;;;3.93;1.40;;;10.40;99.90;;;;;;5009377;28;20518;-50
2022/09/16 04:12:37;;;;;;;5.83;1.90;;;10.40;99.90;;;;;;5009947;28;20491;-50
2022/09/16 04:15:04;;;;;;;2.70;1.83;;;10.40;99.90;;;;;;5005985;28;20471;-51
2022/09/16 04:17:31;;;;;;;9.60;2.47;;;10.40;99.90;;;;;;5009989;28;21004;-50
2022/09/16 04:19:58;;;;;;;2.00;1.40;;;10.40;99.90;;;;;;5009975;28;20529;-50
2022/09/16 04:22:28;;;;;;;4.20;1.97;;;10.40;99.90;;;;;;5006010;28;20549;-51
2022/09/16 04:24:54;;;;;;;7.33;2.27;;;10.40;99.90;;;;;;5008503;28;20517;-50
2022/09/16 04:27:21;;;;;;;2.70;1.60;;;10.40;99.90;;;;;;5009546;28;21023;-50
2022/09/16 04:29:47;;;;;;;4.33;2.03;;;10.40;99.90;;;;;;5010741;28;20463;-50
2022/09/16 04:32:14;;;;;;;6.87;1.70;;;10.40;99.90;;;;;;5006735;28;21090;-50
2022/09/16 04:34:42;;;;;;;2.80;1.67;;;10.40;99.90;;;;;;5006784;28;20456;-50
2022/09/16 04:37:08;;;;;;;3.67;1.47;;;10.40;99.90;;;;;;5005298;28;20483;-50
2022/09/16 04:39:36;;;;;;;6.20;1.70;;;10.40;99.90;;;;;;5007155;28;20467;-51
2022/09/16 04:42:05;;;;;;;3.53;1.60;;;10.40;99.90;;;;;;5001456;28;20598;-50
2022/09/16 04:44:32;;;;;;;4.47;1.83;;;10.30;99.90;;;;;;5005197;28;20525;-50
2022/09/16 04:46:59;;;;;;;4.77;2.50;;;10.30;99.90;;;;;;5002338;28;20491;-51
2022/09/16 04:49:26;;;;;;;3.90;2.00;;;10.30;99.90;;;;;;5002896;28;20454;-50
2022/09/16 04:51:52;;;;;;;4.70;1.80;;;10.30;99.90;;;;;;5005100;28;20543;-51
2022/09/16 04:54:19;;;;;;;5.90;2.23;;;10.40;99.90;;;;;;5002035;28;20489;-50
2022/09/16 04:56:47;;;;;;;6.20;2.53;;;10.30;99.90;;;;;;5007823;28;20511;-50
2022/09/16 04:59:14;;;;;;;5.97;1.60;;;10.30;99.90;;;;;;4994813;28;20463;-50
2022/09/16 05:01:42;;;;;;;4.27;2.00;;;10.30;99.90;;;;;;4998761;28;20483;-51
2022/09/16 05:04:09;;;;;;;6.87;1.57;;;10.30;99.90;;;;;;5004927;28;20467;-50
2022/09/16 05:06:38;;;;;;;3.70;2.20;;;10.30;99.90;;;;;;5008799;28;20479;-50
2022/09/16 05:09:05;;;;;;;5.20;1.63;;;10.30;99.90;;;;;;5009113;28;20463;-50
2022/09/16 05:11:34;;;;;;;2.10;1.90;;;10.30;99.90;;;;;;5009839;28;20997;-50
2022/09/16 05:14:03;;;;;;;3.23;1.33;;;10.30;99.90;;;;;;5007583;28;20468;-50
2022/09/16 05:16:31;;;;;;;5.07;1.83;;;10.30;99.90;;;;;;5008524;28;20529;-52
2022/09/16 05:19:00;;;;;;;3.43;1.90;;;10.30;99.90;;;;;;5002841;28;20637;-52
2022/09/16 05:21:28;;;;;;;5.97;2.43;;;10.30;99.90;;;;;;5000811;28;21692;-51
2022/09/16 05:23:59;;;;;;;2.20;1.70;;;10.30;99.90;;;;;;5002850;28;20468;-51
2022/09/16 05:26:27;;;;;;;2.30;1.53;;;10.30;99.90;;;;;;5003958;28;20460;-51
2022/09/16 05:28:54;;;;;;;2.67;1.83;;;10.30;99.90;;;;;;5009922;28;20468;-51
2022/09/16 05:31:25;;;;;;;3.87;1.50;;;10.30;99.90;;;;;;5007728;28;21090;-50
2022/09/16 05:33:56;;;;;;;2.60;1.30;;;10.40;99.90;;;;;;5011336;28;20460;-51
2022/09/16 05:36:23;;;;;;;2.20;1.63;;;10.40;99.90;;;;;;5007130;28;20459;-51
2022/09/16 05:38:50;;;;;;;5.00;1.90;;;10.40;99.90;;;;;;5013153;28;20439;-51
2022/09/16 05:41:17;;;;;;;6.07;2.37;;;10.50;99.90;;;;;;5005772;28;20955;-51
2022/09/16 05:43:44;;;;;;;2.00;1.73;;;10.50;99.90;;;;;;5008599;28;20513;-51
2022/09/16 05:46:16;;;;;;;3.00;1.70;;;10.50;99.90;;;;;;5009487;28;20470;-50
2022/09/16 05:48:45;;;;;;;4.10;2.10;;;10.60;99.90;;;;;;5009400;28;20519;-51
2022/09/16 05:51:14;;;;;;;1.53;1.33;;;10.50;99.90;;;;;;5009431;28;20484;-51
2022/09/16 05:53:41;;;;;;;3.13;1.50;;;10.60;99.90;;;;;;5006091;28;20877;-51
2022/09/16 05:56:11;;;;;;;3.77;2.30;;;10.60;99.90;;;;;;5006034;28;20492;-51
2022/09/16 05:58:38;;;;;;;2.87;1.63;;;10.60;99.90;;;;;;5010191;28;20510;-51
2022/09/16 06:01:06;;;;;;;5.47;2.00;;;10.70;99.90;;;;;;5032559;22;21030;-52
2022/09/16 06:03:34;;;;;;;4.47;1.97;;;10.70;99.90;;;;;;5046332;28;20827;-51
2022/09/16 06:06:04;;;;;;;11.70;2.20;;;10.70;99.90;;;;;;5043322;28;20514;-52
2022/09/16 06:08:32;;;;;;;2.13;1.93;;;10.80;99.90;;;;;;5042101;28;20879;-52
2022/09/16 06:11:01;;;;;;;4.13;2.17;;;10.80;99.90;;;;;;5044195;28;20474;-53
2022/09/16 06:13:28;;;;;;;3.27;1.53;;;10.80;99.90;;;;;;5045524;28;20548;-51
2022/09/16 06:15:54;;;;;;;13.13;9.10;;;10.80;99.90;;;;;;5043907;28;20481;-52
2022/09/16 06:18:22;;;;;;;23.33;18.80;;;10.90;99.90;;;;;;5048201;28;20563;-52
2022/09/16 06:20:49;;;;;;;4.63;1.90;;;11.00;99.90;;;;;;5040983;28;20488;-53
2022/09/16 06:23:17;;;;;;;6.73;1.70;;;11.00;99.90;;;;;;5042616;28;20519;-52
2022/09/16 06:25:44;;;;;;;10.63;3.60;;;11.10;99.90;;;;;;5045931;28;20536;-54
2022/09/16 06:28:11;;;;;;;6.83;1.47;;;11.10;99.90;;;;;;5047759;28;20454;-52
2022/09/16 06:30:38;;;;;;;2.53;1.53;;;11.10;99.90;;;;;;5045008;28;20485;-52
2022/09/16 06:33:05;;;;;;;2.80;1.80;;;11.20;99.90;;;;;;5042843;28;20820;-52
2022/09/16 06:35:34;;;;;;;2.40;1.47;;;11.20;99.90;;;;;;5040230;28;20454;-52
2022/09/16 06:38:01;;;;;;;4.23;1.70;;;11.20;99.90;;;;;;5045319;28;20492;-52
2022/09/16 06:40:29;;;;;;;5.07;1.90;;;11.20;99.90;;;;;;5045450;28;20854;-52
2022/09/16 06:42:56;;;;;;;2.13;1.60;;;11.30;99.90;;;;;;5043891;28;20489;-52
2022/09/16 06:45:22;;;;;;;5.80;1.87;;;11.40;21.30;;;;;;5042703;28;20466;-51
2022/09/16 06:47:49;;;;;;;4.00;2.07;;;11.40;20.60;;;;;;5046272;28;20573;-51
2022/09/16 06:50:16;;;;;;;3.53;1.80;;;11.50;27.50;;;;;;5034714;28;20486;-51
2022/09/16 06:52:42;;;;;;;2.97;1.57;;;11.60;33.80;;;;;;5027322;28;21042;-52
2022/09/16 06:55:09;;;;;;;3.80;2.20;;;11.70;41.60;;;;;;5044158;28;20466;-52
2022/09/16 06:57:37;;;;;;;2.67;1.80;;;11.70;46.60;;;;;;5047079;28;20539;-51
2022/09/16 07:00:05;;;;;;;5.97;1.70;;;11.70;57.80;;;;;;5036309;28;20496;-53
2022/09/16 07:02:32;;;;;;;7.37;1.87;;;11.70;58.70;;;;;;5044456;28;20478;-52
2022/09/16 07:05:00;;;;;;;3.80;1.40;;;11.70;63.90;;;;;;5042665;28;21036;-53
2022/09/16 07:07:29;;;;;;;3.30;1.70;;;11.70;62.20;;;;;;5046381;28;20454;-52
2022/09/16 07:09:56;;;;;;;7.20;1.53;;;11.80;61.40;;;;;;5044218;28;20461;-53
2022/09/16 07:12:23;;;;;;;9.37;2.20;;;11.80;68.40;;;;;;5045788;28;20508;-53
2022/09/16 07:14:51;;;;;;;6.67;1.90;;;11.80;68.70;;;;;;5042596;28;20497;-52
2022/09/16 07:17:18;;;;;;;4.20;1.77;;;11.90;69.40;;;;;;5039742;28;20543;-53
2022/09/16 07:19:45;;;;;;;8.30;2.13;;;12.00;71.90;;;;;;5044929;28;20821;-53
2022/09/16 07:22:12;;;;;;;3.43;1.60;;;12.10;78.80;;;;;;5045240;28;21010;-52
2022/09/16 07:24:38;;;;;;;5.73;2.10;;;12.10;81.20;;;;;;5040840;28;20453;-52
2022/09/16 07:27:05;;;;;;;3.30;1.50;;;12.20;88.70;;;;;;5044477;28;20631;-52
2022/09/16 07:29:31;;;;;;;4.60;1.53;;;12.20;94.20;;;;;;5047697;28;20485;-52
2022/09/16 07:32:00;;;;;;;5.27;1.87;;;12.30;99.90;;;;;;5045876;28;20540;-51
2022/09/16 07:34:26;;;;;;;3.53;3.23;;;12.30;99.90;;;;;;5046726;28;20477;-52
2022/09/16 07:36:53;;;;;;;4.30;2.67;;;12.40;99.90;;;;;;5052342;28;20508;-52
2022/09/16 07:39:20;;;;;;;6.17;1.90;;;12.50;99.90;;;;;;5047129;28;20866;-51
2022/09/16 07:41:47;;;;;;;5.77;1.40;;;12.60;99.90;;;;;;5044905;28;20486;-51
2022/09/16 07:44:16;;;;;;;3.37;1.77;;;12.70;99.90;;;;;;5047571;28;20572;-52
2022/09/16 07:46:43;;;;;;;7.80;1.53;;;12.80;99.90;;;;;;5045694;28;20461;-52
2022/09/16 07:49:13;;;;;;;3.20;1.70;;;12.80;99.90;;;;;;5045922;28;20799;-51
2022/09/16 07:51:41;;;;;;;5.87;2.00;;;12.80;99.90;;;;;;5047071;28;20567;-51
2022/09/16 07:54:11;;;;;;;4.97;1.93;;;12.80;1.40;;;;;;5046233;28;20465;-53
2022/09/16 07:56:39;;;;;;;8.23;1.73;;;12.80;1.40;;;;;;5045455;28;20457;-51
2022/09/16 07:59:08;;;;;;;4.40;1.50;;;12.90;99.90;;;;;;5041383;28;20537;-52
2022/09/16 08:01:34;;;;;;;7.30;1.73;;;13.10;99.90;;;;;;5041018;28;20578;-52
2022/09/16 08:04:03;;;;;;;9.27;3.33;;;13.10;99.90;;;;;;5046845;28;20465;-51
2022/09/16 08:06:32;;;;;;;3.63;1.57;;;13.10;99.90;;;;;;5049615;28;21349;-51
2022/09/16 08:09:01;;;;;;;6.23;1.50;;;13.10;99.90;;;;;;5041373;28;20544;-51
2022/09/16 08:11:28;;;;;;;3.30;1.43;;;13.10;99.90;;;;;;5051957;28;20913;-52
2022/09/16 08:13:55;;;;;;;5.20;1.97;;;13.10;99.90;;;;;;5048471;28;20849;-52
2022/09/16 08:16:22;;;;;;;2.80;1.50;;;13.30;99.90;;;;;;5042856;28;20474;-52
2022/09/16 08:18:51;;;;;;;7.00;3.97;;;13.30;99.90;;;;;;5046915;28;20516;-52
2022/09/16 08:21:21;;;;;;;2.77;1.60;;;13.40;99.90;;;;;;5051990;28;20530;-52
2022/09/16 08:23:49;;;;;;;4.63;1.20;;;13.50;99.90;;;;;;5050665;28;20522;-52
2022/09/16 08:26:17;;;;;;;3.90;1.27;;;13.60;99.90;;;;;;5045690;28;20997;-52
2022/09/16 08:28:45;;;;;;;5.70;1.77;;;13.80;99.90;;;;;;5045373;28;21032;-51
2022/09/16 08:31:12;;;;;;;3.60;1.47;;;13.80;99.90;;;;;;5050459;28;20551;-51
2022/09/16 08:33:40;;;;;;;6.10;1.33;;;13.80;99.90;;;;;;5043610;28;20462;-51
2022/09/16 08:36:13;;;;;;;5.70;1.53;;;13.90;99.90;;;;;;5051863;28;20457;-51
2022/09/16 08:38:39;;;;;;;6.40;2.40;;;14.00;99.90;;;;;;5049925;28;20473;-51
2022/09/16 08:41:22;;;;;;;2.97;1.57;;;14.00;99.90;;;;;;5052996;28;20888;-50
2022/09/16 08:43:56;;;;;;;9.07;1.60;;;14.10;99.90;;;;;;5045107;28;20458;-51
2022/09/16 08:46:30;;;;;;;13.03;6.93;;;14.10;99.90;;;;;;5048749;28;20519;-51
2022/09/16 08:49:03;;;;;;;2.20;1.20;;;14.30;99.90;;;;;;5045612;28;20864;-51
2022/09/16 08:51:30;;;;;;;4.53;1.60;;;14.40;21.60;;;;;;5040456;28;20787;-51
2022/09/16 08:54:01;;;;;;;4.30;1.40;;;14.50;99.90;;;;;;5047203;28;20515;-51
2022/09/16 08:56:33;;;;;;;4.60;1.63;;;14.70;22.80;;;;;;5045159;28;20462;-51
2022/09/16 08:59:02;;;;;;;1.83;1.33;;;14.80;34.10;;;;;;5043994;28;20485;-51
2022/09/16 09:01:36;;;;;;;3.33;1.33;;;14.80;53.50;;;;;;5041781;28;20489;-51
2022/09/16 09:04:03;;;;;;;3.30;1.20;;;14.80;51.40;;;;;;5041210;28;20511;-51
2022/09/16 09:06:59;;;;;;;5.50;0.90;;;14.90;48.50;;;;;;5047094;28;20526;-51
2022/09/16 09:09:53;;;;;;;8.67;2.40;;;15.10;61.50;;;;;;5041858;28;20490;-52
2022/09/16 09:12:28;;;;;;;2.70;1.57;;;15.30;75.80;;;;;;5047769;28;20482;-52
2022/09/16 09:15:07;;;;;;;4.77;1.70;;;15.40;75.80;;;;;;5047186;28;20511;-52
2022/09/16 09:17:45;;;;;;;10.13;1.60;;;15.60;73.10;;;;;;5040837;28;20864;-52
2022/09/16 09:20:22;;;;;;;4.00;1.43;;;15.70;70.60;;;;;;5046852;28;20488;-52
2022/09/16 09:23:01;;;;;;;7.17;1.60;;;15.80;77.90;;;;;;5045463;28;20538;-51
2022/09/16 09:25:36;;;;;;;6.30;1.40;;;15.90;79.20;;;;;;5047070;28;20523;-52
2022/09/16 09:28:22;;;;;;;3.40;1.43;;;15.70;91.80;;;;;;5039334;28;20485;-52
2022/09/16 09:30:59;;;;;;;4.37;1.47;;;15.40;94.10;;;;;;5045519;28;20466;-52
2022/09/16 09:33:33;;;;;;;6.60;2.03;;;15.30;89.50;;;;;;5048032;28;20867;-52
2022/09/16 09:36:22;;;;;;;5.10;1.03;;;15.30;99.90;;;;;;5045389;28;20473;-52
2022/09/16 09:39:01;;;;;;;3.17;1.17;;;15.40;99.90;;;;;;5033795;28;20474;-52
2022/09/16 09:41:32;;;;;;;5.47;1.70;;;15.50;99.90;;;;;;5044266;28;20500;-52
2022/09/16 09:44:13;;;;;;;3.47;1.23;;;15.70;99.90;;;;;;5044646;28;20454;-52
2022/09/16 09:46:45;;;;;;;5.70;2.80;;;15.60;99.90;;;;;;5038429;28;20511;-52
2022/09/16 09:49:14;;;;;;;7.77;2.80;;;15.60;99.90;;;;;;5044722;28;20484;-52
2022/09/16 09:51:45;;;;;;;8.20;2.57;;;15.70;99.90;;;;;;5039764;28;20597;-52
2022/09/16 09:54:25;;;;;;;4.67;1.40;;;15.90;99.90;;;;;;5042412;28;20458;-52
2022/09/16 09:56:55;;;;;;;4.07;2.10;;;16.00;99.90;;;;;;5046227;28;20496;-52
2022/09/16 09:59:29;;;;;;;9.50;1.87;;;15.90;99.90;;;;;;5042132;28;21033;-51
2022/09/16 10:01:56;;;;;;;16.10;2.03;;;15.60;99.90;;;;;;5040721;28;20574;-53
2022/09/16 10:04:24;;;;;;;3.60;1.87;;;15.30;99.90;;;;;;5046056;28;20458;-52
2022/09/16 10:06:54;;;;;;;4.57;1.93;;;15.10;99.90;;;;;;5048887;28;20466;-53
2022/09/16 10:09:21;;;;;;;8.60;1.70;;;15.00;99.90;;;;;;5043727;28;20964;-53
2022/09/16 10:11:50;;;;;;;9.00;1.67;;;15.10;99.90;;;;;;5041812;28;20470;-52
2022/09/16 10:14:25;;;;;;;8.50;1.43;;;15.10;99.90;;;;;;5042991;28;20462;-53
2022/09/16 10:16:53;;;;;;;3.40;1.27;;;15.20;99.90;;;;;;5045755;28;20548;-53
2022/09/16 10:19:23;;;;;;;6.20;1.80;;;15.20;99.90;;;;;;5045474;28;20580;-52
2022/09/16 10:21:52;;;;;;;9.27;1.97;;;15.20;99.90;;;;;;5043738;28;20523;-53
2022/09/16 10:24:31;;;;;;;2.80;1.40;;;15.30;99.90;;;;;;5045102;28;20464;-53
2022/09/16 10:26:59;;;;;;;5.90;1.30;;;15.50;99.90;;;;;;5040778;28;20454;-53
2022/09/16 10:29:28;;;;;;;9.13;1.53;;;15.80;99.90;;;;;;5037641;28;20940;-54
2022/09/16 10:31:58;;;;;;;3.07;1.40;;;15.90;99.90;;;;;;5040454;28;20501;-53
2022/09/16 10:34:31;;;;;;;16.10;6.47;;;16.10;99.90;;;;;;5046312;28;20844;-53
2022/09/16 10:37:04;;;;;;;9.17;5.30;;;16.20;99.90;;;;;;5041789;28;20458;-53
2022/09/16 10:39:32;;;;;;;5.10;1.03;;;16.30;99.90;;;;;;5040128;28;20631;-54
2022/09/16 10:41:59;;;;;;;15.13;1.97;;;16.30;99.90;;;;;;5041431;28;20529;-52
2022/09/16 10:44:31;;;;;;;6.17;1.87;;;16.40;99.90;;;;;;5044151;28;20459;-53
2022/09/16 10:47:00;;;;;;;11.30;1.63;;;16.30;99.90;;;;;;5041134;28;20539;-53
2022/09/16 10:49:34;;;;;;;7.33;1.63;;;16.10;99.90;;;;;;5038191;28;20482;-53
2022/09/16 10:52:08;;;;;;;6.13;1.20;;;15.70;99.90;;;;;;5043308;28;20496;-53
2022/09/16 10:54:35;;;;;;;3.40;1.33;;;15.70;99.90;;;;;;5047316;28;20467;-53
2022/09/16 10:57:02;;;;;;;6.30;1.43;;;15.90;99.90;;;;;;5042951;28;21154;-53
2022/09/16 10:59:30;;;;;;;4.73;1.17;;;16.00;99.90;;;;;;5046559;28;20515;-53
2022/09/16 11:02:13;;;;;;;4.03;1.30;;;16.30;99.90;;;;;;5041879;28;20489;-53
2022/09/16 11:04:56;;;;;;;4.07;1.87;;;16.50;99.90;;;;;;5047564;28;20462;-53
2022/09/16 11:07:36;;;;;;;6.63;1.80;;;16.70;99.90;;;;;;5044104;28;20450;-52
2022/09/16 11:10:14;;;;;;;6.03;1.40;;;16.70;99.90;;;;;;5046379;28;20461;-53
2022/09/16 11:13:14;;;;;;;2.97;1.50;;;16.50;99.90;;;;;;5040704;28;20504;-53
2022/09/16 11:15:58;;;;;;;6.23;1.60;;;16.40;99.90;;;;;;5041054;28;20834;-54
2022/09/16 11:18:37;;;;;;;5.13;1.33;;;16.30;99.90;;;;;;5043771;28;20511;-53
2022/09/16 11:21:20;;;;;;;8.50;1.63;;;16.20;99.90;;;;;;5042913;28;20481;-53
2022/09/16 11:24:02;;;;;;;7.10;1.40;;;16.30;99.90;;;;;;5046587;28;20504;-53
2022/09/16 11:26:35;;;;;;;7.07;1.37;;;16.40;99.90;;;;;;5044337;28;20813;-52
2022/09/16 11:29:21;;;;;;;11.37;1.10;;;16.50;99.90;;;;;;5042961;28;20491;-53
2022/09/16 11:31:56;;;;;;;5.50;1.73;;;16.60;99.90;;;;;;5041088;28;20582;-53
2022/09/16 11:34:34;;;;;;;9.37;1.87;;;16.80;99.90;;;;;;5045777;28;20461;-54
2022/09/16 11:37:09;;;;;;;5.67;1.57;;;16.90;99.90;;;;;;5042813;28;20461;-53
2022/09/16 11:40:03;;;;;;;3.57;1.40;;;16.80;99.90;;;;;;5047952;28;20888;-53
2022/09/16 11:42:34;;;;;;;3.07;1.33;;;16.90;99.90;;;;;;5041443;28;20520;-54
2022/09/16 11:45:15;;;;;;;5.80;1.37;;;17.00;99.90;;;;;;5042609;28;20463;-53
2022/09/16 11:47:57;;;;;;;3.50;1.30;;;16.90;99.90;;;;;;5042708;28;20457;-52
2022/09/16 11:50:37;;;;;;;5.47;1.60;;;16.90;99.90;;;;;;5038115;28;21096;-52
2022/09/16 11:53:38;;;;;;;4.87;1.67;;;17.00;99.90;;;;;;5043991;28;20458;-54
2022/09/16 11:56:11;;;;;;;7.23;1.30;;;17.20;99.90;;;;;;5043119;28;20570;-53
2022/09/16 11:58:45;;;;;;;6.30;1.00;;;17.20;99.90;;;;;;5044309;28;20643;-53
2022/09/16 12:01:30;;;;;;;10.03;2.07;;;17.10;99.90;;;;;;5042186;28;20482;-52
2022/09/16 12:04:04;;;;;;;3.33;0.90;;;17.10;99.90;;;;;;5044394;28;20458;-52
2022/09/16 12:06:39;;;;;;;2.40;1.00;;;17.10;99.90;;;;;;5048911;28;20510;-51
2022/09/16 12:09:12;;;;;;;8.23;1.17;;;17.10;99.90;;;;;;5046965;28;20465;-50
2022/09/16 12:11:42;;;;;;;7.37;1.50;;;17.20;99.90;;;;;;5047996;28;20939;-51
2022/09/16 12:14:15;;;;;;;2.77;1.03;;;17.10;99.90;;;;;;5047302;28;20457;-52
2022/09/16 12:16:46;;;;;;;2.50;1.00;;;16.90;99.90;;;;;;5045110;28;20454;-51
2022/09/16 12:19:21;;;;;;;8.67;1.50;;;16.90;99.90;;;;;;5047248;28;20538;-51
2022/09/16 12:21:52;;;;;;;8.33;1.10;;;16.90;99.90;;;;;;5046806;28;21098;-52
2022/09/16 12:24:24;;;;;;;4.37;1.20;;;17.10;99.90;;;;;;5047382;28;20463;-52
2022/09/16 12:26:57;;;;;;;6.63;1.30;;;17.10;99.90;;;;;;5043055;28;20481;-51
2022/09/16 12:29:33;;;;;;;2.20;1.30;;;17.00;99.90;;;;;;5045578;28;20454;-51
2022/09/16 12:32:05;;;;;;;6.73;1.50;;;16.80;99.90;;;;;;5042151;28;20518;-51
2022/09/16 12:34:38;;;;;;;4.10;0.70;;;16.60;99.90;;;;;;5042508;28;20555;-51
2022/09/16 12:37:13;;;;;;;5.70;1.27;;;16.50;99.90;;;;;;5042843;28;20457;-51
2022/09/16 12:39:40;;;;;;;3.60;0.77;;;16.50;99.90;;;;;;5047347;28;21002;-51
2022/09/16 12:42:40;;;;;;;3.60;0.97;;;16.60;99.90;;;;;;5045556;28;20520;-51
2022/09/16 12:45:23;;;;;;;3.23;1.10;;;16.80;99.90;;;;;;5042817;28;20551;-50
2022/09/16 12:48:13;;;;;;;4.23;1.23;;;17.00;99.90;;;;;;5050294;28;20466;-51
2022/09/16 12:51:22;;;;;;;3.80;0.90;;;17.10;99.90;;;;;;5050093;28;20559;-50
2022/09/16 12:54:22;;;;;;;5.57;1.07;;;17.30;99.90;;;;;;4978671;28;20629;-51
2022/09/16 12:57:03;;;;;;;2.20;1.27;;;17.70;99.90;;;;;;5006430;28;20456;-51
2022/09/16 12:59:54;;;;;;;7.97;1.43;;;17.80;99.90;;;;;;5047413;28;20474;-52
2022/09/16 13:02:25;;;;;;;4.17;1.10;;;17.70;99.90;;;;;;5041225;28;20482;-51
2022/09/16 13:04:55;;;;;;;4.00;1.30;;;17.60;99.90;;;;;;5049047;28;20511;-50
2022/09/16 13:07:25;;;;;;;3.57;1.00;;;17.70;99.90;;;;;;5047592;28;21024;-51
2022/09/16 13:10:01;;;;;;;2.33;1.10;;;17.80;99.90;;;;;;5045034;28;20531;-51